sensor_id;sensor_type;location;lat;lon;timestamp;temperature;humidity
12233;DHT22;6179;51.748;8.728;2022-10-16T00:01:46;14.40;98.30
12233;DHT22;6179;51.748;8.728;2022-10-16T00:07:47;14.40;98.30
12233;DHT22;6179;51.748;8.728;2022-10-16T00:13:50;14.40;98.30
12233;DHT22;6179;51.748;8.728;2022-10-16T00:19:50;14.50;98.30
12233;DHT22;6179;51.748;8.728;2022-10-16T00:25:56;14.50;98.30
12233;DHT22;6179;51.748;8.728;2022-10-16T00:31:57;14.40;98.30
12233;DHT22;6179;51.748;8.728;2022-10-16T00:37:57;14.50;98.30
12233;DHT22;6179;51.748;8.728;2022-10-16T00:44:00;14.40;98.30
12233;DHT22;6179;51.748;8.728;2022-10-16T00:56:28;14.40;98.30
12233;DHT22;6179;51.748;8.728;2022-10-16T01:02:30;14.20;98.30
12233;DHT22;6179;51.748;8.728;2022-10-16T01:08:41;14.30;98.30
12233;DHT22;6179;51.748;8.728;2022-10-16T01:15:12;14.30;98.30
12233;DHT22;6179;51.748;8.728;2022-10-16T01:21:34;14.20;98.30
12233;DHT22;6179;51.748;8.728;2022-10-16T01:27:39;14.20;98.30
12233;DHT22;6179;51.748;8.728;2022-10-16T01:33:47;14.20;98.30
12233;DHT22;6179;51.748;8.728;2022-10-16T01:39:50;14.10;98.30
12233;DHT22;6179;51.748;8.728;2022-10-16T01:45:53;14.20;98.30
12233;DHT22;6179;51.748;8.728;2022-10-16T01:51:56;14.10;98.30
12233;DHT22;6179;51.748;8.728;2022-10-16T01:57:59;14.00;98.30
12233;DHT22;6179;51.748;8.728;2022-10-16T02:04:15;13.90;98.30
12233;DHT22;6179;51.748;8.728;2022-10-16T02:10:17;13.90;98.30
12233;DHT22;6179;51.748;8.728;2022-10-16T02:16:18;13.80;98.30
12233;DHT22;6179;51.748;8.728;2022-10-16T02:22:30;13.80;98.30
12233;DHT22;6179;51.748;8.728;2022-10-16T02:28:48;13.90;98.30
12233;DHT22;6179;51.748;8.728;2022-10-16T02:34:53;14.10;98.30
12233;DHT22;6179;51.748;8.728;2022-10-16T02:40:54;14.20;98.30
12233;DHT22;6179;51.748;8.728;2022-10-16T02:46:55;14.20;98.30
12233;DHT22;6179;51.748;8.728;2022-10-16T02:52:56;14.30;98.30
12233;DHT22;6179;51.748;8.728;2022-10-16T02:58:57;14.30;98.30
12233;DHT22;6179;51.748;8.728;2022-10-16T03:04:57;14.50;98.30
12233;DHT22;6179;51.748;8.728;2022-10-16T03:10:58;14.50;98.30
12233;DHT22;6179;51.748;8.728;2022-10-16T03:16:59;14.50;98.30
12233;DHT22;6179;51.748;8.728;2022-10-16T03:22:59;14.40;98.30
12233;DHT22;6179;51.748;8.728;2022-10-16T03:29:00;14.10;98.30
12233;DHT22;6179;51.748;8.728;2022-10-16T03:35:03;14.10;98.30
12233;DHT22;6179;51.748;8.728;2022-10-16T03:41:03;14.20;98.30
12233;DHT22;6179;51.748;8.728;2022-10-16T03:47:04;14.10;98.30
12233;DHT22;6179;51.748;8.728;2022-10-16T03:53:05;14.30;98.30
12233;DHT22;6179;51.748;8.728;2022-10-16T03:59:06;14.30;98.30
12233;DHT22;6179;51.748;8.728;2022-10-16T04:05:07;14.40;98.30
12233;DHT22;6179;51.748;8.728;2022-10-16T04:11:07;14.40;98.30
12233;DHT22;6179;51.748;8.728;2022-10-16T04:17:08;14.20;98.30
12233;DHT22;6179;51.748;8.728;2022-10-16T04:23:08;14.10;98.30
12233;DHT22;6179;51.748;8.728;2022-10-16T04:29:09;14.20;98.30
12233;DHT22;6179;51.748;8.728;2022-10-16T04:35:10;14.30;98.30
12233;DHT22;6179;51.748;8.728;2022-10-16T04:41:10;14.40;98.30
12233;DHT22;6179;51.748;8.728;2022-10-16T04:47:11;14.20;98.30
12233;DHT22;6179;51.748;8.728;2022-10-16T04:53:12;14.30;98.30
12233;DHT22;6179;51.748;8.728;2022-10-16T04:59:14;14.50;98.30
12233;DHT22;6179;51.748;8.728;2022-10-16T05:05:14;14.50;98.30
12233;DHT22;6179;51.748;8.728;2022-10-16T05:11:15;14.60;98.30
12233;DHT22;6179;51.748;8.728;2022-10-16T05:17:16;14.70;98.30
12233;DHT22;6179;51.748;8.728;2022-10-16T05:23:16;14.90;98.30
12233;DHT22;6179;51.748;8.728;2022-10-16T05:29:17;14.70;98.30
12233;DHT22;6179;51.748;8.728;2022-10-16T05:35:18;14.80;98.30
12233;DHT22;6179;51.748;8.728;2022-10-16T05:41:19;14.90;98.30
12233;DHT22;6179;51.748;8.728;2022-10-16T05:47:22;14.90;98.30
12233;DHT22;6179;51.748;8.728;2022-10-16T05:53:22;14.80;98.30
12233;DHT22;6179;51.748;8.728;2022-10-16T05:59:25;15.10;98.30
12233;DHT22;6179;51.748;8.728;2022-10-16T06:05:26;14.90;98.30
12233;DHT22;6179;51.748;8.728;2022-10-16T06:11:29;15.00;98.30
12233;DHT22;6179;51.748;8.728;2022-10-16T06:17:30;14.90;98.30
12233;DHT22;6179;51.748;8.728;2022-10-16T06:23:31;14.90;98.30
12233;DHT22;6179;51.748;8.728;2022-10-16T06:29:31;14.80;98.30
12233;DHT22;6179;51.748;8.728;2022-10-16T06:35:32;14.80;98.30
12233;DHT22;6179;51.748;8.728;2022-10-16T06:41:34;15.00;98.30
12233;DHT22;6179;51.748;8.728;2022-10-16T06:47:34;15.00;98.30
12233;DHT22;6179;51.748;8.728;2022-10-16T06:53:37;15.20;98.30
12233;DHT22;6179;51.748;8.728;2022-10-16T06:59:38;15.50;98.30
12233;DHT22;6179;51.748;8.728;2022-10-16T07:05:39;15.40;98.30
12233;DHT22;6179;51.748;8.728;2022-10-16T07:11:40;15.70;98.30
12233;DHT22;6179;51.748;8.728;2022-10-16T07:17:41;15.00;98.30
12233;DHT22;6179;51.748;8.728;2022-10-16T07:23:42;15.30;98.30
12233;DHT22;6179;51.748;8.728;2022-10-16T07:29:43;15.50;98.30
12233;DHT22;6179;51.748;8.728;2022-10-16T07:35:51;15.40;98.30
12233;DHT22;6179;51.748;8.728;2022-10-16T07:41:51;15.70;98.30
12233;DHT22;6179;51.748;8.728;2022-10-16T07:47:52;16.00;98.30
12233;DHT22;6179;51.748;8.728;2022-10-16T07:53:53;16.40;98.10
12233;DHT22;6179;51.748;8.728;2022-10-16T07:59:54;16.40;98.30
12233;DHT22;6179;51.748;8.728;2022-10-16T08:05:57;16.40;97.60
12233;DHT22;6179;51.748;8.728;2022-10-16T08:11:57;16.20;98.30
12233;DHT22;6179;51.748;8.728;2022-10-16T08:18:00;16.40;98.30
12233;DHT22;6179;51.748;8.728;2022-10-16T08:24:01;16.50;98.30
12233;DHT22;6179;51.748;8.728;2022-10-16T08:30:01;16.60;98.30
12233;DHT22;6179;51.748;8.728;2022-10-16T08:36:03;16.40;97.50
12233;DHT22;6179;51.748;8.728;2022-10-16T08:42:31;16.80;97.20
12233;DHT22;6179;51.748;8.728;2022-10-16T08:54:48;16.30;97.20
12233;DHT22;6179;51.748;8.728;2022-10-16T09:00:57;16.40;96.90
12233;DHT22;6179;51.748;8.728;2022-10-16T09:13:19;17.10;96.20
12233;DHT22;6179;51.748;8.728;2022-10-16T09:19:36;17.50;94.00
12233;DHT22;6179;51.748;8.728;2022-10-16T09:25:40;17.60;93.30
12233;DHT22;6179;51.748;8.728;2022-10-16T09:31:43;17.60;93.60
12233;DHT22;6179;51.748;8.728;2022-10-16T09:37:46;17.70;92.50
12233;DHT22;6179;51.748;8.728;2022-10-16T09:43:53;17.60;92.00
12233;DHT22;6179;51.748;8.728;2022-10-16T09:56:00;17.90;89.20
12233;DHT22;6179;51.748;8.728;2022-10-16T10:02:03;17.80;88.90
12233;DHT22;6179;51.748;8.728;2022-10-16T10:08:15;17.80;88.10
12233;DHT22;6179;51.748;8.728;2022-10-16T10:20:36;17.90;86.40
12233;DHT22;6179;51.748;8.728;2022-10-16T10:27:26;18.30;84.70
12233;DHT22;6179;51.748;8.728;2022-10-16T10:39:32;18.40;82.70
12233;DHT22;6179;51.748;8.728;2022-10-16T10:45:46;18.70;82.30
12233;DHT22;6179;51.748;8.728;2022-10-16T10:58:34;18.60;82.70
12233;DHT22;6179;51.748;8.728;2022-10-16T11:16:56;19.10;81.70
12233;DHT22;6179;51.748;8.728;2022-10-16T11:23:07;19.10;80.20
12233;DHT22;6179;51.748;8.728;2022-10-16T11:29:25;19.40;81.50
12233;DHT22;6179;51.748;8.728;2022-10-16T11:41:49;19.20;79.20
12233;DHT22;6179;51.748;8.728;2022-10-16T11:47:57;19.50;80.50
12233;DHT22;6179;51.748;8.728;2022-10-16T11:54:41;19.20;79.70
12233;DHT22;6179;51.748;8.728;2022-10-16T12:01:04;19.10;80.80
12233;DHT22;6179;51.748;8.728;2022-10-16T12:07:23;19.30;81.50
12233;DHT22;6179;51.748;8.728;2022-10-16T12:13:31;19.20;82.30
12233;DHT22;6179;51.748;8.728;2022-10-16T12:19:32;19.20;80.00
12233;DHT22;6179;51.748;8.728;2022-10-16T12:25:35;19.30;80.70
12233;DHT22;6179;51.748;8.728;2022-10-16T12:31:43;19.50;81.20
12233;DHT22;6179;51.748;8.728;2022-10-16T12:37:44;19.60;79.60
12233;DHT22;6179;51.748;8.728;2022-10-16T12:43:46;19.70;80.10
12233;DHT22;6179;51.748;8.728;2022-10-16T12:49:53;19.90;79.20
12233;DHT22;6179;51.748;8.728;2022-10-16T12:56:04;19.60;78.70
12233;DHT22;6179;51.748;8.728;2022-10-16T13:22:05;19.40;80.90
12233;DHT22;6179;51.748;8.728;2022-10-16T13:28:11;19.70;78.80
12233;DHT22;6179;51.748;8.728;2022-10-16T13:34:21;19.60;80.10
12233;DHT22;6179;51.748;8.728;2022-10-16T13:40:24;19.70;80.70
12233;DHT22;6179;51.748;8.728;2022-10-16T13:46:25;19.20;81.30
12233;DHT22;6179;51.748;8.728;2022-10-16T13:52:26;19.40;79.80
12233;DHT22;6179;51.748;8.728;2022-10-16T13:58:27;19.70;80.00
12233;DHT22;6179;51.748;8.728;2022-10-16T14:04:31;19.80;80.60
12233;DHT22;6179;51.748;8.728;2022-10-16T14:10:33;19.60;81.60
12233;DHT22;6179;51.748;8.728;2022-10-16T14:16:34;20.20;77.90
12233;DHT22;6179;51.748;8.728;2022-10-16T14:22:39;20.40;77.80
12233;DHT22;6179;51.748;8.728;2022-10-16T14:28:41;20.40;79.10
12233;DHT22;6179;51.748;8.728;2022-10-16T14:34:53;20.40;77.80
12233;DHT22;6179;51.748;8.728;2022-10-16T14:40:54;20.70;76.00
12233;DHT22;6179;51.748;8.728;2022-10-16T14:46:57;20.50;78.50
12233;DHT22;6179;51.748;8.728;2022-10-16T14:53:00;20.30;78.90
12233;DHT22;6179;51.748;8.728;2022-10-16T14:59:00;19.90;79.90
12233;DHT22;6179;51.748;8.728;2022-10-16T15:11:17;20.10;79.30
12233;DHT22;6179;51.748;8.728;2022-10-16T15:17:18;19.90;81.20
12233;DHT22;6179;51.748;8.728;2022-10-16T15:23:21;19.60;82.90
12233;DHT22;6179;51.748;8.728;2022-10-16T15:29:22;19.40;84.20
12233;DHT22;6179;51.748;8.728;2022-10-16T15:35:22;19.30;84.80
12233;DHT22;6179;51.748;8.728;2022-10-16T15:41:23;19.10;86.10
12233;DHT22;6179;51.748;8.728;2022-10-16T15:47:24;19.00;86.20
12233;DHT22;6179;51.748;8.728;2022-10-16T15:53:24;18.70;86.80
12233;DHT22;6179;51.748;8.728;2022-10-16T15:59:25;19.00;85.40
12233;DHT22;6179;51.748;8.728;2022-10-16T16:05:26;18.50;87.80
12233;DHT22;6179;51.748;8.728;2022-10-16T16:11:27;18.50;88.50
12233;DHT22;6179;51.748;8.728;2022-10-16T16:17:30;18.10;89.90
12233;DHT22;6179;51.748;8.728;2022-10-16T16:23:31;17.80;90.40
12233;DHT22;6179;51.748;8.728;2022-10-16T16:29:32;17.60;90.90
12233;DHT22;6179;51.748;8.728;2022-10-16T16:35:32;17.40;91.40
12233;DHT22;6179;51.748;8.728;2022-10-16T16:41:33;17.30;92.30
12233;DHT22;6179;51.748;8.728;2022-10-16T16:47:34;17.10;92.60
12233;DHT22;6179;51.748;8.728;2022-10-16T16:53:35;17.00;93.10
12233;DHT22;6179;51.748;8.728;2022-10-16T16:59:36;16.90;93.60
12233;DHT22;6179;51.748;8.728;2022-10-16T17:05:37;17.10;94.20
12233;DHT22;6179;51.748;8.728;2022-10-16T17:11:38;17.20;94.80
12233;DHT22;6179;51.748;8.728;2022-10-16T17:17:41;17.00;95.60
12233;DHT22;6179;51.748;8.728;2022-10-16T17:23:42;17.00;96.00
12233;DHT22;6179;51.748;8.728;2022-10-16T17:29:42;16.90;97.10
12233;DHT22;6179;51.748;8.728;2022-10-16T17:35:45;16.70;97.40
12233;DHT22;6179;51.748;8.728;2022-10-16T17:41:47;16.70;97.60
12233;DHT22;6179;51.748;8.728;2022-10-16T17:47:47;16.70;98.00
12233;DHT22;6179;51.748;8.728;2022-10-16T17:53:49;16.90;97.10
12233;DHT22;6179;51.748;8.728;2022-10-16T17:59:50;17.10;96.40
12233;DHT22;6179;51.748;8.728;2022-10-16T18:05:51;17.10;95.70
12233;DHT22;6179;51.748;8.728;2022-10-16T18:11:52;16.90;96.70
12233;DHT22;6179;51.748;8.728;2022-10-16T18:17:59;16.60;97.70
12233;DHT22;6179;51.748;8.728;2022-10-16T18:23:59;16.80;97.00
12233;DHT22;6179;51.748;8.728;2022-10-16T18:30:00;16.60;97.20
12233;DHT22;6179;51.748;8.728;2022-10-16T18:36:03;16.60;97.40
12233;DHT22;6179;51.748;8.728;2022-10-16T18:42:04;16.70;97.00
12233;DHT22;6179;51.748;8.728;2022-10-16T18:48:05;16.70;97.10
12233;DHT22;6179;51.748;8.728;2022-10-16T18:54:08;16.70;96.80
12233;DHT22;6179;51.748;8.728;2022-10-16T19:00:09;16.80;96.60
12233;DHT22;6179;51.748;8.728;2022-10-16T19:06:12;16.70;97.10
12233;DHT22;6179;51.748;8.728;2022-10-16T19:12:13;16.70;97.50
12233;DHT22;6179;51.748;8.728;2022-10-16T19:18:14;16.60;97.70
12233;DHT22;6179;51.748;8.728;2022-10-16T19:24:15;16.50;98.10
12233;DHT22;6179;51.748;8.728;2022-10-16T19:30:17;16.70;97.50
12233;DHT22;6179;51.748;8.728;2022-10-16T19:36:29;16.80;97.40
12233;DHT22;6179;51.748;8.728;2022-10-16T19:42:30;17.10;95.90
12233;DHT22;6179;51.748;8.728;2022-10-16T19:48:31;16.90;96.60
12233;DHT22;6179;51.748;8.728;2022-10-16T19:54:32;16.80;97.20
12233;DHT22;6179;51.748;8.728;2022-10-16T20:00:35;16.70;97.80
12233;DHT22;6179;51.748;8.728;2022-10-16T20:06:35;16.60;98.30
12233;DHT22;6179;51.748;8.728;2022-10-16T20:12:36;16.70;98.30
12233;DHT22;6179;51.748;8.728;2022-10-16T20:18:37;16.50;98.30
12233;DHT22;6179;51.748;8.728;2022-10-16T20:24:38;16.60;98.30
12233;DHT22;6179;51.748;8.728;2022-10-16T20:30:41;16.60;98.30
12233;DHT22;6179;51.748;8.728;2022-10-16T20:36:42;16.60;98.30
12233;DHT22;6179;51.748;8.728;2022-10-16T20:42:44;16.50;98.30
12233;DHT22;6179;51.748;8.728;2022-10-16T20:48:45;16.50;98.30
12233;DHT22;6179;51.748;8.728;2022-10-16T20:54:46;16.70;98.30
12233;DHT22;6179;51.748;8.728;2022-10-16T21:00:47;16.90;98.30
12233;DHT22;6179;51.748;8.728;2022-10-16T21:06:47;16.50;98.30
12233;DHT22;6179;51.748;8.728;2022-10-16T21:12:52;16.50;98.30
12233;DHT22;6179;51.748;8.728;2022-10-16T21:18:54;16.50;98.30
12233;DHT22;6179;51.748;8.728;2022-10-16T21:24:54;16.20;98.30
12233;DHT22;6179;51.748;8.728;2022-10-16T21:30:55;16.50;98.30
12233;DHT22;6179;51.748;8.728;2022-10-16T21:36:56;16.50;98.30
12233;DHT22;6179;51.748;8.728;2022-10-16T21:42:56;16.50;98.30
12233;DHT22;6179;51.748;8.728;2022-10-16T21:49:01;16.60;98.30
12233;DHT22;6179;51.748;8.728;2022-10-16T21:55:03;16.60;98.30
12233;DHT22;6179;51.748;8.728;2022-10-16T22:01:11;16.40;98.30
12233;DHT22;6179;51.748;8.728;2022-10-16T22:07:12;16.20;98.30
12233;DHT22;6179;51.748;8.728;2022-10-16T22:13:12;16.10;98.30
12233;DHT22;6179;51.748;8.728;2022-10-16T22:19:15;16.30;98.30
12233;DHT22;6179;51.748;8.728;2022-10-16T22:25:16;16.60;98.30
12233;DHT22;6179;51.748;8.728;2022-10-16T22:31:16;16.50;98.30
12233;DHT22;6179;51.748;8.728;2022-10-16T22:37:17;16.50;98.30
12233;DHT22;6179;51.748;8.728;2022-10-16T22:43:18;16.50;98.30
12233;DHT22;6179;51.748;8.728;2022-10-16T22:49:18;16.30;98.30
12233;DHT22;6179;51.748;8.728;2022-10-16T22:55:19;16.30;98.30
12233;DHT22;6179;51.748;8.728;2022-10-16T23:01:27;16.20;98.30
12233;DHT22;6179;51.748;8.728;2022-10-16T23:07:28;16.20;98.30
12233;DHT22;6179;51.748;8.728;2022-10-16T23:13:28;16.20;98.30
12233;DHT22;6179;51.748;8.728;2022-10-16T23:19:29;16.30;98.30
12233;DHT22;6179;51.748;8.728;2022-10-16T23:25:29;16.40;98.30
12233;DHT22;6179;51.748;8.728;2022-10-16T23:31:30;16.20;98.30
12233;DHT22;6179;51.748;8.728;2022-10-16T23:37:31;16.20;98.30
12233;DHT22;6179;51.748;8.728;2022-10-16T23:43:32;16.10;98.30
12233;DHT22;6179;51.748;8.728;2022-10-16T23:49:32;16.30;98.30
12233;DHT22;6179;51.748;8.728;2022-10-16T23:55:33;16.20;98.30
